Lanham, Nebraska
Current Conditions -  °F | °C
As of 10:35 AM on Saturday 22 Nov 2014 (Local Time) from KMYZ Reporting Station
Haze Haze  
Wind Chill: 40°   Ceiling: 300
Heat Index: 45°   Visibility: 2.5mi
Dew Point: 45°   Wind: 9mph
Humidity: 100%   Direction: 220°SW
Pressure: 29.86"   Gusts: NA
Location:  40.0451°N, 96.8032°W
Report Text: KMYZ 221635Z AUTO 22008KT 2 1/2SM BR OVC003 07/07 A2986 RMK AO2 LTG DSNT SW
Loading
Personal Weather Stations






























Interactive Weather Map New forecast layout! Learn more

10-Day Weather Forecast

Advertisements
Track Severe Weather on mobile